sensor_id;sensor_type;location;lat;lon;timestamp;pressure;altitude;pressure_sealevel;temperature;humidity
70127;BME280;57491;42.694;23.314;2023-02-04T00:00:11;94932.97;;;4.61;64.08
70127;BME280;57491;42.694;23.314;2023-02-04T00:02:40;94914.56;;;4.38;63.57
70127;BME280;57491;42.694;23.314;2023-02-04T00:05:08;94923.72;;;4.50;63.68
70127;BME280;57491;42.694;23.314;2023-02-04T00:07:35;94921.00;;;4.69;64.10
70127;BME280;57491;42.694;23.314;2023-02-04T00:10:04;94913.06;;;4.80;63.88
70127;BME280;57491;42.694;23.314;2023-02-04T00:12:32;94910.69;;;4.87;64.39
70127;BME280;57491;42.694;23.314;2023-02-04T00:14:59;94894.19;;;4.98;63.68
70127;BME280;57491;42.694;23.314;2023-02-04T00:17:26;94898.53;;;4.97;63.17
70127;BME280;57491;42.694;23.314;2023-02-04T00:19:55;94888.91;;;4.99;62.34
70127;BME280;57491;42.694;23.314;2023-02-04T00:22:22;94908.44;;;5.10;62.34
70127;BME280;57491;42.694;23.314;2023-02-04T00:24:51;94896.28;;;5.20;63.61
70127;BME280;57491;42.694;23.314;2023-02-04T00:27:18;94893.31;;;5.07;62.15
70127;BME280;57491;42.694;23.314;2023-02-04T00:29:45;94885.47;;;5.16;64.47
70127;BME280;57491;42.694;23.314;2023-02-04T00:32:13;94875.63;;;5.12;61.82
70127;BME280;57491;42.694;23.314;2023-02-04T00:34:40;94895.88;;;5.07;61.60
70127;BME280;57491;42.694;23.314;2023-02-04T00:37:08;94890.78;;;5.15;63.43
70127;BME280;57491;42.694;23.314;2023-02-04T00:39:36;94875.75;;;5.10;62.15
70127;BME280;57491;42.694;23.314;2023-02-04T00:42:03;94874.91;;;5.02;64.76
70127;BME280;57491;42.694;23.314;2023-02-04T00:44:30;94869.59;;;5.03;63.02
70127;BME280;57491;42.694;23.314;2023-02-04T00:46:58;94871.81;;;4.98;62.61
70127;BME280;57491;42.694;23.314;2023-02-04T00:49:25;94865.19;;;5.13;62.92
70127;BME280;57491;42.694;23.314;2023-02-04T00:51:52;94870.78;;;5.09;60.40
70127;BME280;57491;42.694;23.314;2023-02-04T00:54:21;94880.41;;;5.07;59.95
70127;BME280;57491;42.694;23.314;2023-02-04T00:56:48;94862.16;;;5.18;64.59
70127;BME280;57491;42.694;23.314;2023-02-04T00:59:15;94851.22;;;5.24;60.53
70127;BME280;57491;42.694;23.314;2023-02-04T01:01:42;94859.63;;;5.26;60.29
70127;BME280;57491;42.694;23.314;2023-02-04T01:04:10;94850.63;;;5.30;61.97
70127;BME280;57491;42.694;23.314;2023-02-04T01:06:37;94835.50;;;5.35;62.08
70127;BME280;57491;42.694;23.314;2023-02-04T01:09:05;94838.09;;;5.35;58.51
70127;BME280;57491;42.694;23.314;2023-02-04T01:11:34;94829.38;;;5.36;58.29
70127;BME280;57491;42.694;23.314;2023-02-04T01:14:01;94832.13;;;5.34;60.03
70127;BME280;57491;42.694;23.314;2023-02-04T01:16:28;94834.13;;;5.49;61.98
70127;BME280;57491;42.694;23.314;2023-02-04T01:18:55;94814.16;;;5.59;59.55
70127;BME280;57491;42.694;23.314;2023-02-04T01:21:23;94819.06;;;5.70;60.11
70127;BME280;57491;42.694;23.314;2023-02-04T01:23:50;94814.38;;;5.65;57.63
70127;BME280;57491;42.694;23.314;2023-02-04T01:26:17;94812.44;;;5.67;57.15
70127;BME280;57491;42.694;23.314;2023-02-04T01:28:46;94815.06;;;5.75;57.39
70127;BME280;57491;42.694;23.314;2023-02-04T01:31:14;94804.22;;;5.72;57.93
70127;BME280;57491;42.694;23.314;2023-02-04T01:33:41;94799.38;;;5.69;58.73
70127;BME280;57491;42.694;23.314;2023-02-04T01:36:09;94801.84;;;5.78;57.11
70127;BME280;57491;42.694;23.314;2023-02-04T01:38:36;94792.66;;;5.42;56.87
70127;BME280;57491;42.694;23.314;2023-02-04T01:41:04;94790.94;;;5.17;57.59
70127;BME280;57491;42.694;23.314;2023-02-04T01:43:31;94794.53;;;4.72;59.30
70127;BME280;57491;42.694;23.314;2023-02-04T01:46:00;94797.94;;;4.37;61.09
70127;BME280;57491;42.694;23.314;2023-02-04T01:48:28;94789.50;;;4.27;61.03
70127;BME280;57491;42.694;23.314;2023-02-04T01:51:01;94788.38;;;4.30;61.03
70127;BME280;57491;42.694;23.314;2023-02-04T01:53:30;94783.22;;;4.30;61.15
70127;BME280;57491;42.694;23.314;2023-02-04T01:55:58;94781.47;;;4.13;61.35
70127;BME280;57491;42.694;23.314;2023-02-04T01:58:26;94780.78;;;3.75;62.94
70127;BME280;57491;42.694;23.314;2023-02-04T02:00:54;94783.41;;;3.66;64.07
70127;BME280;57491;42.694;23.314;2023-02-04T02:03:23;94774.34;;;3.34;65.13
70127;BME280;57491;42.694;23.314;2023-02-04T02:05:51;94779.88;;;3.02;66.52
70127;BME280;57491;42.694;23.314;2023-02-04T02:08:20;94788.72;;;2.90;67.33
70127;BME280;57491;42.694;23.314;2023-02-04T02:10:47;94784.25;;;2.92;67.81
70127;BME280;57491;42.694;23.314;2023-02-04T02:13:16;94773.06;;;3.21;67.30
70127;BME280;57491;42.694;23.314;2023-02-04T02:15:44;94768.66;;;3.40;66.54
70127;BME280;57491;42.694;23.314;2023-02-04T02:18:12;94770.03;;;3.62;65.41
70127;BME280;57491;42.694;23.314;2023-02-04T02:20:41;94751.91;;;3.36;65.91
70127;BME280;57491;42.694;23.314;2023-02-04T02:23:14;94760.19;;;2.93;67.88
70127;BME280;57491;42.694;23.314;2023-02-04T02:25:44;94746.13;;;3.25;67.28
70127;BME280;57491;42.694;23.314;2023-02-04T02:28:13;94753.19;;;3.50;66.31
70127;BME280;57491;42.694;23.314;2023-02-04T02:30:42;94732.22;;;3.72;65.18
70127;BME280;57491;42.694;23.314;2023-02-04T02:33:10;94724.22;;;3.93;64.62
70127;BME280;57491;42.694;23.314;2023-02-04T02:35:39;94706.13;;;4.02;63.89
70127;BME280;57491;42.694;23.314;2023-02-04T02:38:08;94699.75;;;3.89;63.42
70127;BME280;57491;42.694;23.314;2023-02-04T02:40:36;94699.91;;;4.05;64.26
70127;BME280;57491;42.694;23.314;2023-02-04T02:43:05;94689.91;;;4.28;63.61
70127;BME280;57491;42.694;23.314;2023-02-04T02:45:33;94684.13;;;4.26;63.02
70127;BME280;57491;42.694;23.314;2023-02-04T02:48:01;94686.16;;;4.40;66.25
70127;BME280;57491;42.694;23.314;2023-02-04T02:50:30;94695.91;;;4.54;63.72
70127;BME280;57491;42.694;23.314;2023-02-04T02:52:58;94693.75;;;4.67;62.85
70127;BME280;57491;42.694;23.314;2023-02-04T02:55:26;94668.44;;;4.63;61.37
70127;BME280;57491;42.694;23.314;2023-02-04T02:57:55;94680.75;;;4.77;61.37
70127;BME280;57491;42.694;23.314;2023-02-04T03:00:25;94679.03;;;4.85;61.23
70127;BME280;57491;42.694;23.314;2023-02-04T03:02:55;94685.88;;;5.03;62.72
70127;BME280;57491;42.694;23.314;2023-02-04T03:05:25;94679.78;;;5.12;59.80
70127;BME280;57491;42.694;23.314;2023-02-04T03:07:54;94673.25;;;4.91;59.64
70127;BME280;57491;42.694;23.314;2023-02-04T03:10:21;94679.25;;;4.66;61.08
70127;BME280;57491;42.694;23.314;2023-02-04T03:12:49;94680.31;;;4.56;60.59
70127;BME280;57491;42.694;23.314;2023-02-04T03:15:16;94687.16;;;4.47;60.52
70127;BME280;57491;42.694;23.314;2023-02-04T03:17:45;94685.09;;;4.25;61.80
70127;BME280;57491;42.694;23.314;2023-02-04T03:20:14;94681.75;;;4.32;61.75
70127;BME280;57491;42.694;23.314;2023-02-04T03:22:42;94669.50;;;4.52;61.12
70127;BME280;57491;42.694;23.314;2023-02-04T03:25:10;94670.22;;;4.62;60.86
70127;BME280;57491;42.694;23.314;2023-02-04T03:27:37;94672.88;;;4.78;63.34
70127;BME280;57491;42.694;23.314;2023-02-04T03:30:05;94676.66;;;5.00;61.20
70127;BME280;57491;42.694;23.314;2023-02-04T03:32:33;94673.97;;;5.10;61.91
70127;BME280;57491;42.694;23.314;2023-02-04T03:35:02;94667.84;;;5.03;59.53
70127;BME280;57491;42.694;23.314;2023-02-04T03:37:30;94674.16;;;5.16;60.71
70127;BME280;57491;42.694;23.314;2023-02-04T03:39:57;94665.78;;;5.22;58.95
70127;BME280;57491;42.694;23.314;2023-02-04T03:42:24;94671.81;;;5.31;58.34
70127;BME280;57491;42.694;23.314;2023-02-04T03:44:51;94675.91;;;5.08;58.61
70127;BME280;57491;42.694;23.314;2023-02-04T03:47:18;94658.94;;;4.97;58.58
70127;BME280;57491;42.694;23.314;2023-02-04T03:49:45;94637.56;;;4.63;58.94
70127;BME280;57491;42.694;23.314;2023-02-04T03:52:14;94657.41;;;4.44;60.19
70127;BME280;57491;42.694;23.314;2023-02-04T03:54:41;94657.13;;;4.30;61.17
70127;BME280;57491;42.694;23.314;2023-02-04T03:57:08;94644.31;;;4.38;60.66
70127;BME280;57491;42.694;23.314;2023-02-04T03:59:36;94629.44;;;4.49;59.95
70127;BME280;57491;42.694;23.314;2023-02-04T04:02:03;94635.25;;;4.60;60.22
70127;BME280;57491;42.694;23.314;2023-02-04T04:04:30;94633.38;;;4.70;60.57
70127;BME280;57491;42.694;23.314;2023-02-04T04:06:58;94618.28;;;4.75;60.79
70127;BME280;57491;42.694;23.314;2023-02-04T04:09:26;94624.47;;;4.90;61.49
70127;BME280;57491;42.694;23.314;2023-02-04T04:11:54;94607.75;;;4.94;60.29
70127;BME280;57491;42.694;23.314;2023-02-04T04:14:21;94611.78;;;4.97;58.87
70127;BME280;57491;42.694;23.314;2023-02-04T04:16:48;94612.44;;;4.99;58.65
70127;BME280;57491;42.694;23.314;2023-02-04T04:19:16;94600.22;;;5.09;58.95
70127;BME280;57491;42.694;23.314;2023-02-04T04:21:43;94608.31;;;5.22;60.00
70127;BME280;57491;42.694;23.314;2023-02-04T04:24:10;94600.59;;;5.22;60.77
70127;BME280;57491;42.694;23.314;2023-02-04T04:26:38;94601.88;;;5.26;59.38
70127;BME280;57491;42.694;23.314;2023-02-04T04:29:05;94608.91;;;5.08;62.44
70127;BME280;57491;42.694;23.314;2023-02-04T04:31:32;94608.94;;;5.24;61.72
70127;BME280;57491;42.694;23.314;2023-02-04T04:33:59;94607.16;;;5.16;60.37
70127;BME280;57491;42.694;23.314;2023-02-04T04:36:27;94607.03;;;5.26;62.51
70127;BME280;57491;42.694;23.314;2023-02-04T04:38:54;94622.50;;;5.26;61.18
70127;BME280;57491;42.694;23.314;2023-02-04T04:41:21;94616.06;;;5.30;60.61
70127;BME280;57491;42.694;23.314;2023-02-04T04:43:49;94618.63;;;5.30;60.50
70127;BME280;57491;42.694;23.314;2023-02-04T04:46:16;94622.84;;;5.31;60.53
70127;BME280;57491;42.694;23.314;2023-02-04T04:48:43;94643.00;;;5.44;60.81
70127;BME280;57491;42.694;23.314;2023-02-04T04:51:10;94630.91;;;5.44;60.66
70127;BME280;57491;42.694;23.314;2023-02-04T04:53:37;94629.78;;;5.47;63.34
70127;BME280;57491;42.694;23.314;2023-02-04T04:56:05;94627.69;;;5.42;60.59
70127;BME280;57491;42.694;23.314;2023-02-04T04:58:32;94633.50;;;5.52;61.53
70127;BME280;57491;42.694;23.314;2023-02-04T05:01:00;94626.25;;;5.48;58.08
70127;BME280;57491;42.694;23.314;2023-02-04T05:03:27;94626.09;;;5.57;59.21
70127;BME280;57491;42.694;23.314;2023-02-04T05:05:54;94618.69;;;5.78;62.25
70127;BME280;57491;42.694;23.314;2023-02-04T05:08:21;94621.75;;;5.66;60.08
70127;BME280;57491;42.694;23.314;2023-02-04T05:10:49;94630.78;;;5.70;60.06
70127;BME280;57491;42.694;23.314;2023-02-04T05:13:16;94610.97;;;5.62;60.18
70127;BME280;57491;42.694;23.314;2023-02-04T05:15:43;94635.13;;;5.69;64.66
70127;BME280;57491;42.694;23.314;2023-02-04T05:18:11;94657.41;;;5.87;64.11
70127;BME280;57491;42.694;23.314;2023-02-04T05:20:38;94646.16;;;6.12;61.75
70127;BME280;57491;42.694;23.314;2023-02-04T05:23:05;94661.78;;;6.10;59.46
70127;BME280;57491;42.694;23.314;2023-02-04T05:25:32;94659.06;;;6.12;60.96
70127;BME280;57491;42.694;23.314;2023-02-04T05:27:59;94667.44;;;6.06;60.61
70127;BME280;57491;42.694;23.314;2023-02-04T05:30:26;94674.19;;;5.91;59.99
70127;BME280;57491;42.694;23.314;2023-02-04T05:32:53;94680.91;;;5.67;62.58
70127;BME280;57491;42.694;23.314;2023-02-04T05:35:23;94680.88;;;5.59;60.70
70127;BME280;57491;42.694;23.314;2023-02-04T05:37:50;94692.78;;;5.44;60.97
70127;BME280;57491;42.694;23.314;2023-02-04T05:40:17;94684.34;;;5.18;61.47
70127;BME280;57491;42.694;23.314;2023-02-04T05:42:44;94689.25;;;5.03;62.84
70127;BME280;57491;42.694;23.314;2023-02-04T05:45:14;94681.59;;;4.85;62.01
70127;BME280;57491;42.694;23.314;2023-02-04T05:47:43;94692.56;;;4.87;63.49
70127;BME280;57491;42.694;23.314;2023-02-04T05:50:10;94676.06;;;4.72;62.79
70127;BME280;57491;42.694;23.314;2023-02-04T05:52:39;94675.03;;;4.65;63.45
70127;BME280;57491;42.694;23.314;2023-02-04T05:55:07;94662.44;;;4.54;63.13
70127;BME280;57491;42.694;23.314;2023-02-04T05:57:34;94657.34;;;4.62;63.16
70127;BME280;57491;42.694;23.314;2023-02-04T06:00:02;94646.34;;;4.52;62.47
70127;BME280;57491;42.694;23.314;2023-02-04T06:02:29;94660.28;;;4.67;62.86
70127;BME280;57491;42.694;23.314;2023-02-04T06:04:56;94668.41;;;4.88;65.14
70127;BME280;57491;42.694;23.314;2023-02-04T06:07:23;94665.22;;;4.94;63.89
70127;BME280;57491;42.694;23.314;2023-02-04T06:09:51;94665.16;;;4.86;59.91
70127;BME280;57491;42.694;23.314;2023-02-04T06:12:18;94664.53;;;4.84;60.28
70127;BME280;57491;42.694;23.314;2023-02-04T06:14:45;94677.81;;;5.06;61.36
70127;BME280;57491;42.694;23.314;2023-02-04T06:17:12;94693.66;;;5.19;60.53
70127;BME280;57491;42.694;23.314;2023-02-04T06:19:40;94687.41;;;5.29;59.23
70127;BME280;57491;42.694;23.314;2023-02-04T06:22:07;94683.75;;;5.40;58.62
70127;BME280;57491;42.694;23.314;2023-02-04T06:24:34;94687.31;;;5.47;57.94
70127;BME280;57491;42.694;23.314;2023-02-04T06:27:02;94685.41;;;5.49;57.73
70127;BME280;57491;42.694;23.314;2023-02-04T06:29:30;94687.34;;;5.63;57.56
70127;BME280;57491;42.694;23.314;2023-02-04T06:31:57;94695.41;;;5.60;57.07
70127;BME280;57491;42.694;23.314;2023-02-04T06:34:24;94690.38;;;5.59;56.99
70127;BME280;57491;42.694;23.314;2023-02-04T06:36:51;94696.06;;;5.62;57.07
70127;BME280;57491;42.694;23.314;2023-02-04T06:39:18;94690.09;;;5.62;56.70
70127;BME280;57491;42.694;23.314;2023-02-04T06:41:45;94698.50;;;5.80;56.21
70127;BME280;57491;42.694;23.314;2023-02-04T06:44:14;94699.00;;;5.83;55.90
70127;BME280;57491;42.694;23.314;2023-02-04T06:46:41;94694.84;;;5.91;55.42
70127;BME280;57491;42.694;23.314;2023-02-04T06:49:08;94689.38;;;6.02;57.50
70127;BME280;57491;42.694;23.314;2023-02-04T06:51:35;94691.63;;;6.05;54.20
70127;BME280;57491;42.694;23.314;2023-02-04T06:54:02;94690.03;;;6.28;54.49
70127;BME280;57491;42.694;23.314;2023-02-04T06:56:29;94686.94;;;6.41;53.36
70127;BME280;57491;42.694;23.314;2023-02-04T06:58:56;94684.00;;;6.68;52.16
70127;BME280;57491;42.694;23.314;2023-02-04T07:01:25;94668.69;;;7.13;51.39
70127;BME280;57491;42.694;23.314;2023-02-04T07:03:52;94664.50;;;7.43;50.03
70127;BME280;57491;42.694;23.314;2023-02-04T07:06:19;94670.59;;;7.81;48.97
70127;BME280;57491;42.694;23.314;2023-02-04T07:08:46;94669.94;;;8.10;47.48
70127;BME280;57491;42.694;23.314;2023-02-04T07:11:14;94667.13;;;8.57;50.09
70127;BME280;57491;42.694;23.314;2023-02-04T07:13:41;94650.34;;;8.82;45.82
70127;BME280;57491;42.694;23.314;2023-02-04T07:16:08;94657.03;;;9.06;44.97
70127;BME280;57491;42.694;23.314;2023-02-04T07:18:37;94655.09;;;9.23;45.41
70127;BME280;57491;42.694;23.314;2023-02-04T07:21:04;94668.66;;;9.39;44.44
70127;BME280;57491;42.694;23.314;2023-02-04T07:23:31;94656.22;;;9.20;44.59
70127;BME280;57491;42.694;23.314;2023-02-04T07:25:59;94647.75;;;8.97;45.30
70127;BME280;57491;42.694;23.314;2023-02-04T07:28:26;94639.09;;;8.90;45.47
70127;BME280;57491;42.694;23.314;2023-02-04T07:30:53;94634.06;;;9.03;46.24
70127;BME280;57491;42.694;23.314;2023-02-04T07:33:20;94648.66;;;9.04;45.50
70127;BME280;57491;42.694;23.314;2023-02-04T07:35:49;94644.38;;;9.47;45.13
70127;BME280;57491;42.694;23.314;2023-02-04T07:38:16;94645.72;;;9.79;44.24
70127;BME280;57491;42.694;23.314;2023-02-04T07:40:43;94633.97;;;9.83;43.58
70127;BME280;57491;42.694;23.314;2023-02-04T07:43:10;94635.81;;;10.04;43.53
70127;BME280;57491;42.694;23.314;2023-02-04T07:45:37;94639.44;;;10.09;42.68
70127;BME280;57491;42.694;23.314;2023-02-04T07:48:05;94643.16;;;10.43;42.09
70127;BME280;57491;42.694;23.314;2023-02-04T07:50:32;94643.75;;;10.45;42.42
70127;BME280;57491;42.694;23.314;2023-02-04T07:53:00;94633.50;;;10.64;41.63
70127;BME280;57491;42.694;23.314;2023-02-04T07:55:27;94644.09;;;10.63;41.89
70127;BME280;57491;42.694;23.314;2023-02-04T07:57:55;94640.94;;;10.18;41.89
70127;BME280;57491;42.694;23.314;2023-02-04T08:00:22;94652.28;;;9.96;42.89
70127;BME280;57491;42.694;23.314;2023-02-04T08:02:50;94636.53;;;9.76;43.45
70127;BME280;57491;42.694;23.314;2023-02-04T08:05:17;94644.09;;;9.57;43.36
70127;BME280;57491;42.694;23.314;2023-02-04T08:07:45;94650.16;;;9.13;44.64
70127;BME280;57491;42.694;23.314;2023-02-04T08:10:13;94656.94;;;9.14;46.89
70127;BME280;57491;42.694;23.314;2023-02-04T08:12:40;94647.84;;;8.60;46.91
70127;BME280;57491;42.694;23.314;2023-02-04T08:15:08;94635.25;;;7.96;48.15
70127;BME280;57491;42.694;23.314;2023-02-04T08:17:35;94646.16;;;7.84;48.08
70127;BME280;57491;42.694;23.314;2023-02-04T08:20:03;94648.97;;;7.43;49.97
70127;BME280;57491;42.694;23.314;2023-02-04T08:22:30;94656.50;;;7.30;50.68
70127;BME280;57491;42.694;23.314;2023-02-04T08:24:58;94654.91;;;7.29;50.75
70127;BME280;57491;42.694;23.314;2023-02-04T08:27:27;94640.97;;;7.38;50.87
70127;BME280;57491;42.694;23.314;2023-02-04T08:29:54;94644.81;;;7.34;50.76
70127;BME280;57491;42.694;23.314;2023-02-04T08:32:21;94647.81;;;7.23;51.46
70127;BME280;57491;42.694;23.314;2023-02-04T08:34:48;94639.13;;;7.08;52.01
70127;BME280;57491;42.694;23.314;2023-02-04T08:37:16;94640.91;;;7.07;52.15
70127;BME280;57491;42.694;23.314;2023-02-04T08:39:43;94632.81;;;7.18;51.94
70127;BME280;57491;42.694;23.314;2023-02-04T08:42:11;94635.47;;;7.33;50.74
70127;BME280;57491;42.694;23.314;2023-02-04T08:44:39;94636.53;;;7.47;51.58
70127;BME280;57491;42.694;23.314;2023-02-04T08:47:06;94642.63;;;7.54;52.25
70127;BME280;57491;42.694;23.314;2023-02-04T08:49:34;94635.25;;;7.74;51.08
70127;BME280;57491;42.694;23.314;2023-02-04T08:52:02;94633.78;;;7.71;52.47
70127;BME280;57491;42.694;23.314;2023-02-04T08:54:31;94608.91;;;7.47;52.32
70127;BME280;57491;42.694;23.314;2023-02-04T08:56:58;94632.44;;;7.52;52.05
70127;BME280;57491;42.694;23.314;2023-02-04T08:59:25;94641.53;;;7.48;53.04
70127;BME280;57491;42.694;23.314;2023-02-04T09:01:55;94634.41;;;7.50;52.86
70127;BME280;57491;42.694;23.314;2023-02-04T09:04:23;94625.69;;;7.51;52.47
70127;BME280;57491;42.694;23.314;2023-02-04T09:06:50;94630.31;;;7.33;53.64
70127;BME280;57491;42.694;23.314;2023-02-04T09:09:17;94629.66;;;7.31;53.56
70127;BME280;57491;42.694;23.314;2023-02-04T09:11:44;94626.94;;;7.55;55.34
70127;BME280;57491;42.694;23.314;2023-02-04T09:14:12;94612.78;;;7.89;52.90
70127;BME280;57491;42.694;23.314;2023-02-04T09:16:39;94618.03;;;7.81;51.83
70127;BME280;57491;42.694;23.314;2023-02-04T09:19:07;94611.88;;;7.82;51.41
70127;BME280;57491;42.694;23.314;2023-02-04T09:21:37;94619.19;;;8.01;52.16
70127;BME280;57491;42.694;23.314;2023-02-04T09:24:04;94624.81;;;8.04;51.12
70127;BME280;57491;42.694;23.314;2023-02-04T09:26:31;94616.38;;;8.25;51.62
70127;BME280;57491;42.694;23.314;2023-02-04T09:28:59;94620.72;;;8.33;50.51
70127;BME280;57491;42.694;23.314;2023-02-04T09:31:26;94618.88;;;8.19;48.66
70127;BME280;57491;42.694;23.314;2023-02-04T09:33:53;94625.56;;;8.13;49.74
70127;BME280;57491;42.694;23.314;2023-02-04T09:36:21;94627.41;;;7.82;51.24
70127;BME280;57491;42.694;23.314;2023-02-04T09:38:52;94620.63;;;7.58;53.40
70127;BME280;57491;42.694;23.314;2023-02-04T09:41:20;94624.38;;;7.55;54.27
70127;BME280;57491;42.694;23.314;2023-02-04T09:43:47;94621.38;;;7.67;55.09
70127;BME280;57491;42.694;23.314;2023-02-04T09:46:19;94619.41;;;7.46;54.49
70127;BME280;57491;42.694;23.314;2023-02-04T09:48:47;94622.00;;;7.46;57.03
70127;BME280;57491;42.694;23.314;2023-02-04T09:51:16;94613.28;;;7.39;56.23
70127;BME280;57491;42.694;23.314;2023-02-04T09:53:46;94611.97;;;7.20;56.08
70127;BME280;57491;42.694;23.314;2023-02-04T09:56:14;94602.19;;;7.30;56.04
70127;BME280;57491;42.694;23.314;2023-02-04T09:58:42;94598.47;;;7.02;56.63
70127;BME280;57491;42.694;23.314;2023-02-04T10:01:13;94590.38;;;7.05;56.60
70127;BME280;57491;42.694;23.314;2023-02-04T10:03:43;94598.38;;;7.18;57.00
70127;BME280;57491;42.694;23.314;2023-02-04T10:06:13;94598.97;;;7.28;57.05
70127;BME280;57491;42.694;23.314;2023-02-04T10:08:42;94588.72;;;7.43;58.18
70127;BME280;57491;42.694;23.314;2023-02-04T10:11:11;94589.69;;;7.65;56.45
70127;BME280;57491;42.694;23.314;2023-02-04T10:13:42;94580.19;;;7.80;56.84
70127;BME280;57491;42.694;23.314;2023-02-04T10:16:13;94583.13;;;7.77;55.16
70127;BME280;57491;42.694;23.314;2023-02-04T10:18:41;94573.19;;;7.66;54.18
70127;BME280;57491;42.694;23.314;2023-02-04T10:21:14;94583.59;;;7.57;55.20
70127;BME280;57491;42.694;23.314;2023-02-04T10:23:43;94575.22;;;7.55;55.27
70127;BME280;57491;42.694;23.314;2023-02-04T10:26:14;94566.44;;;7.56;57.50
70127;BME280;57491;42.694;23.314;2023-02-04T10:28:41;94571.22;;;7.68;54.56
70127;BME280;57491;42.694;23.314;2023-02-04T10:31:26;94573.19;;;7.66;55.24
70127;BME280;57491;42.694;23.314;2023-02-04T10:36:47;94563.72;;;7.04;57.56
70127;BME280;57491;42.694;23.314;2023-02-04T10:39:16;94575.69;;;7.05;58.18
70127;BME280;57491;42.694;23.314;2023-02-04T10:41:46;94568.78;;;6.98;59.33
70127;BME280;57491;42.694;23.314;2023-02-04T10:44:15;94565.19;;;6.99;59.95
70127;BME280;57491;42.694;23.314;2023-02-04T10:46:43;94570.06;;;6.94;60.60
70127;BME280;57491;42.694;23.314;2023-02-04T10:49:21;94566.66;;;7.01;62.09
70127;BME280;57491;42.694;23.314;2023-02-04T10:51:49;94559.41;;;6.97;60.01
70127;BME280;57491;42.694;23.314;2023-02-04T10:54:18;94557.53;;;6.83;60.33
70127;BME280;57491;42.694;23.314;2023-02-04T10:57:10;94558.50;;;6.82;60.66
70127;BME280;57491;42.694;23.314;2023-02-04T10:59:39;94549.44;;;6.86;61.34
70127;BME280;57491;42.694;23.314;2023-02-04T11:02:32;94546.94;;;7.00;62.83
70127;BME280;57491;42.694;23.314;2023-02-04T11:05:01;94544.03;;;7.26;60.34
70127;BME280;57491;42.694;23.314;2023-02-04T11:07:28;94546.63;;;7.26;59.99
70127;BME280;57491;42.694;23.314;2023-02-04T11:09:56;94547.84;;;7.38;60.65
70127;BME280;57491;42.694;23.314;2023-02-04T11:12:36;94542.63;;;7.46;59.05
70127;BME280;57491;42.694;23.314;2023-02-04T11:15:05;94523.81;;;7.30;58.78
70127;BME280;57491;42.694;23.314;2023-02-04T11:17:33;94529.47;;;7.33;58.28
70127;BME280;57491;42.694;23.314;2023-02-04T11:20:12;94533.69;;;7.49;58.69
70127;BME280;57491;42.694;23.314;2023-02-04T11:22:42;94536.97;;;7.66;59.05
70127;BME280;57491;42.694;23.314;2023-02-04T11:25:31;94535.91;;;7.60;58.41
70127;BME280;57491;42.694;23.314;2023-02-04T11:28:12;94527.53;;;7.73;58.95
70127;BME280;57491;42.694;23.314;2023-02-04T11:30:39;94531.59;;;7.90;58.95
70127;BME280;57491;42.694;23.314;2023-02-04T11:33:21;94534.72;;;8.00;58.76
70127;BME280;57491;42.694;23.314;2023-02-04T11:36:02;94534.38;;;8.03;57.03
70127;BME280;57491;42.694;23.314;2023-02-04T11:38:31;94538.66;;;7.96;58.16
70127;BME280;57491;42.694;23.314;2023-02-04T11:40:59;94538.31;;;7.99;58.25
70127;BME280;57491;42.694;23.314;2023-02-04T11:43:27;94543.06;;;7.73;58.19
70127;BME280;57491;42.694;23.314;2023-02-04T11:46:04;94521.50;;;7.35;59.58
70127;BME280;57491;42.694;23.314;2023-02-04T11:48:31;94532.59;;;7.66;59.30
70127;BME280;57491;42.694;23.314;2023-02-04T11:51:00;94536.88;;;7.96;58.33
70127;BME280;57491;42.694;23.314;2023-02-04T11:53:29;94541.56;;;7.93;57.16
70127;BME280;57491;42.694;23.314;2023-02-04T11:55:57;94539.06;;;7.85;58.32
70127;BME280;57491;42.694;23.314;2023-02-04T11:58:24;94525.72;;;7.58;58.09
70127;BME280;57491;42.694;23.314;2023-02-04T12:00:53;94531.03;;;7.57;58.89
70127;BME280;57491;42.694;23.314;2023-02-04T12:03:23;94539.84;;;7.48;60.44
70127;BME280;57491;42.694;23.314;2023-02-04T12:05:52;94521.94;;;7.24;60.59
70127;BME280;57491;42.694;23.314;2023-02-04T12:08:29;94532.53;;;7.06;60.64
70127;BME280;57491;42.694;23.314;2023-02-04T12:11:02;94522.31;;;6.82;62.00
70127;BME280;57491;42.694;23.314;2023-02-04T12:13:30;94522.56;;;6.95;62.13
70127;BME280;57491;42.694;23.314;2023-02-04T12:16:00;94519.56;;;7.14;62.04
70127;BME280;57491;42.694;23.314;2023-02-04T12:18:28;94529.50;;;7.25;61.68
70127;BME280;57491;42.694;23.314;2023-02-04T12:20:56;94530.72;;;7.14;61.81
70127;BME280;57491;42.694;23.314;2023-02-04T12:23:23;94525.31;;;7.24;62.36
70127;BME280;57491;42.694;23.314;2023-02-04T12:25:50;94523.75;;;7.15;62.60
70127;BME280;57491;42.694;23.314;2023-02-04T12:28:18;94524.53;;;6.93;62.75
70127;BME280;57491;42.694;23.314;2023-02-04T12:30:45;94486.81;;;6.45;62.58
70127;BME280;57491;42.694;23.314;2023-02-04T12:33:14;94521.75;;;6.63;63.71
70127;BME280;57491;42.694;23.314;2023-02-04T12:35:41;94518.91;;;6.50;63.61
70127;BME280;57491;42.694;23.314;2023-02-04T12:38:09;94516.94;;;6.60;64.06
70127;BME280;57491;42.694;23.314;2023-02-04T12:40:36;94517.56;;;6.70;63.21
70127;BME280;57491;42.694;23.314;2023-02-04T12:43:03;94512.03;;;6.73;63.03
70127;BME280;57491;42.694;23.314;2023-02-04T12:45:31;94506.88;;;6.73;62.62
70127;BME280;57491;42.694;23.314;2023-02-04T12:47:58;94516.53;;;6.80;62.41
70127;BME280;57491;42.694;23.314;2023-02-04T12:50:27;94515.84;;;6.86;62.58
70127;BME280;57491;42.694;23.314;2023-02-04T12:52:55;94516.44;;;6.96;64.04
70127;BME280;57491;42.694;23.314;2023-02-04T12:55:23;94513.75;;;7.12;61.30
70127;BME280;57491;42.694;23.314;2023-02-04T12:57:50;94516.31;;;7.20;60.67
70127;BME280;57491;42.694;23.314;2023-02-04T13:00:18;94507.63;;;7.36;63.12
70127;BME280;57491;42.694;23.314;2023-02-04T13:02:46;94504.78;;;7.45;59.02
70127;BME280;57491;42.694;23.314;2023-02-04T13:05:14;94503.03;;;7.23;58.81
70127;BME280;57491;42.694;23.314;2023-02-04T13:07:42;94516.03;;;7.07;58.75